createdAt,value
2019-03-29T00:01:43.247Z,100.00
2019-03-29T00:04:12.952Z,100.00
2019-03-29T00:06:43.999Z,100.00
2019-03-29T00:09:13.748Z,100.00
2019-03-29T00:11:43.507Z,100.00
2019-03-29T00:14:13.067Z,100.00
2019-03-29T00:16:42.651Z,100.00
2019-03-29T00:19:12.181Z,100.00
2019-03-29T00:21:41.743Z,100.00
2019-03-29T00:24:11.336Z,100.00
2019-03-29T00:26:40.884Z,100.00
2019-03-29T00:29:10.508Z,100.00
2019-03-29T00:31:40.295Z,100.00
2019-03-29T00:34:09.923Z,100.00
2019-03-29T00:36:39.578Z,100.00
2019-03-29T00:39:09.222Z,100.00
2019-03-29T00:41:41.492Z,100.00
2019-03-29T00:44:12.728Z,100.00
2019-03-29T00:46:42.280Z,100.00
2019-03-29T00:49:11.828Z,100.00
2019-03-29T00:51:41.406Z,100.00
2019-03-29T00:54:11.062Z,100.00
2019-03-29T00:56:42.775Z,100.00
2019-03-29T00:59:12.407Z,100.00
2019-03-29T01:01:41.978Z,100.00
2019-03-29T01:04:11.632Z,100.00
2019-03-29T01:06:41.231Z,100.00
2019-03-29T01:09:12.248Z,100.00
2019-03-29T01:11:41.807Z,100.00
2019-03-29T01:14:11.481Z,100.00
2019-03-29T01:16:41.049Z,100.00
2019-03-29T01:19:10.771Z,100.00
2019-03-29T01:21:40.404Z,100.00
2019-03-29T01:24:11.310Z,100.00
2019-03-29T01:26:41.044Z,100.00
2019-03-29T01:29:10.669Z,100.00
2019-03-29T01:31:40.971Z,100.00
2019-03-29T01:34:11.202Z,100.00
2019-03-29T01:36:40.899Z,100.00
2019-03-29T01:39:10.656Z,100.00
2019-03-29T01:41:40.218Z,100.00
2019-03-29T01:44:10.129Z,100.00
2019-03-29T01:46:41.848Z,100.00
2019-03-29T01:49:11.652Z,100.00
2019-03-29T01:51:41.574Z,100.00
2019-03-29T01:54:11.592Z,100.00
2019-03-29T01:56:41.505Z,100.00
2019-03-29T01:59:11.264Z,100.00
2019-03-29T02:01:43.298Z,100.00
2019-03-29T02:04:13.003Z,100.00
2019-03-29T02:06:42.899Z,100.00
2019-03-29T02:09:12.589Z,100.00
2019-03-29T02:11:42.196Z,100.00
2019-03-29T02:14:11.806Z,100.00
2019-03-29T02:16:41.448Z,100.00
2019-03-29T02:19:11.098Z,100.00
2019-03-29T02:21:40.816Z,100.00
2019-03-29T02:24:10.401Z,100.00
2019-03-29T02:26:39.988Z,100.00
2019-03-29T02:29:10.931Z,100.00
2019-03-29T02:31:42.430Z,100.00
2019-03-29T02:34:12.264Z,100.00
2019-03-29T02:36:41.954Z,100.00
2019-03-29T02:39:11.518Z,100.00
2019-03-29T02:41:41.069Z,100.00
2019-03-29T02:44:10.747Z,100.00
2019-03-29T02:46:40.337Z,100.00
2019-03-29T02:49:09.920Z,100.00
2019-03-29T02:51:39.563Z,100.00
2019-03-29T02:54:09.535Z,100.00
2019-03-29T02:56:39.204Z,100.00
2019-03-29T02:59:08.895Z,100.00
2019-03-29T03:01:38.676Z,100.00
2019-03-29T03:04:08.744Z,100.00
2019-03-29T03:06:38.493Z,100.00
2019-03-29T03:09:13.804Z,100.00
2019-03-29T03:11:39.917Z,100.00
2019-03-29T03:14:09.707Z,100.00
2019-03-29T03:16:39.391Z,100.00
2019-03-29T03:19:10.476Z,100.00
2019-03-29T03:21:40.295Z,100.00
2019-03-29T03:24:10.114Z,100.00
2019-03-29T03:26:39.777Z,100.00
2019-03-29T03:29:09.467Z,100.00
2019-03-29T03:31:39.241Z,100.00
2019-03-29T03:34:08.803Z,100.00
2019-03-29T03:36:38.490Z,100.00
2019-03-29T03:39:08.791Z,100.00
2019-03-29T03:41:38.411Z,100.00
2019-03-29T03:44:08.238Z,100.00
2019-03-29T03:46:37.950Z,100.00
2019-03-29T03:49:07.531Z,100.00
2019-03-29T03:51:37.347Z,100.00
2019-03-29T03:54:07.212Z,100.00
2019-03-29T03:56:37.170Z,100.00
2019-03-29T03:59:06.890Z,100.00
2019-03-29T04:01:36.525Z,100.00
2019-03-29T04:04:06.567Z,100.00
2019-03-29T04:06:36.237Z,100.00
2019-03-29T04:09:07.158Z,100.00
2019-03-29T04:11:36.757Z,100.00
2019-03-29T04:14:06.387Z,100.00
2019-03-29T04:16:35.950Z,100.00
2019-03-29T04:19:05.712Z,100.00
2019-03-29T04:21:35.402Z,100.00
2019-03-29T04:24:05.094Z,100.00
2019-03-29T04:26:34.735Z,100.00
2019-03-29T04:29:05.383Z,100.00
2019-03-29T04:31:37.563Z,100.00
2019-03-29T04:34:07.227Z,100.00
2019-03-29T04:36:36.870Z,100.00
2019-03-29T04:39:07.500Z,100.00
2019-03-29T04:41:37.304Z,100.00
2019-03-29T04:44:06.963Z,100.00
2019-03-29T04:46:36.736Z,100.00
2019-03-29T04:49:06.351Z,100.00
2019-03-29T04:51:36.088Z,100.00
2019-03-29T04:54:05.732Z,100.00
2019-03-29T04:56:37.617Z,100.00
2019-03-29T04:59:07.327Z,100.00
2019-03-29T05:01:37.034Z,100.00
2019-03-29T05:04:07.005Z,100.00
2019-03-29T05:06:36.651Z,100.00
2019-03-29T05:09:08.303Z,100.00
2019-03-29T05:11:37.954Z,100.00
2019-03-29T05:14:07.636Z,100.00
2019-03-29T05:16:37.337Z,100.00
2019-03-29T05:19:06.953Z,100.00
2019-03-29T05:21:36.551Z,100.00
2019-03-29T05:24:06.273Z,100.00
2019-03-29T05:26:36.032Z,100.00
2019-03-29T05:29:13.091Z,100.00
2019-03-29T05:31:42.787Z,100.00
2019-03-29T05:34:12.372Z,100.00
2019-03-29T05:36:41.955Z,100.00
2019-03-29T05:39:11.575Z,100.00
2019-03-29T05:41:41.246Z,100.00
2019-03-29T05:44:11.004Z,100.00
2019-03-29T05:46:40.798Z,100.00
2019-03-29T05:49:10.502Z,100.00
2019-03-29T05:51:40.078Z,100.00
2019-03-29T05:54:10.538Z,100.00
2019-03-29T05:56:40.117Z,100.00
2019-03-29T05:59:09.689Z,100.00
2019-03-29T06:01:39.363Z,100.00
2019-03-29T06:04:09.068Z,100.00
2019-03-29T06:06:38.784Z,100.00
2019-03-29T06:09:08.496Z,100.00
2019-03-29T06:11:38.027Z,100.00
2019-03-29T06:14:07.691Z,100.00
2019-03-29T06:16:39.296Z,100.00
2019-03-29T06:19:08.869Z,100.00
2019-03-29T06:21:38.504Z,100.00
2019-03-29T06:24:08.162Z,100.00
2019-03-29T06:26:37.781Z,100.00
2019-03-29T06:29:07.418Z,100.00
2019-03-29T06:31:37.006Z,100.00
2019-03-29T06:34:06.732Z,100.00
2019-03-29T06:36:37.674Z,100.00
2019-03-29T06:39:08.619Z,100.00
2019-03-29T06:41:38.329Z,100.00
2019-03-29T06:44:08.015Z,100.00
2019-03-29T06:46:37.593Z,100.00
2019-03-29T06:49:07.294Z,100.00
2019-03-29T06:51:37.046Z,100.00
2019-03-29T06:54:06.756Z,100.00
2019-03-29T06:56:36.378Z,100.00
2019-03-29T06:59:05.992Z,100.00
2019-03-29T07:01:35.543Z,100.00
2019-03-29T07:04:05.183Z,100.00
2019-03-29T07:06:37.122Z,100.00
2019-03-29T07:09:07.852Z,99.21
2019-03-29T07:11:39.718Z,96.84
2019-03-29T07:14:08.642Z,96.36
2019-03-29T07:16:38.289Z,96.41
2019-03-29T07:19:07.839Z,96.41
2019-03-29T07:21:37.383Z,94.40
2019-03-29T07:24:06.909Z,94.40
2019-03-29T07:26:36.445Z,96.69
2019-03-29T07:29:06.052Z,93.03
2019-03-29T07:31:35.620Z,91.87
2019-03-29T07:34:05.386Z,91.87
2019-03-29T07:36:34.921Z,91.75
2019-03-29T07:39:05.674Z,89.19
2019-03-29T07:41:35.251Z,87.99
2019-03-29T07:44:04.864Z,90.67
2019-03-29T07:46:34.476Z,90.67
2019-03-29T07:49:05.208Z,89.30
2019-03-29T07:51:34.754Z,87.90
2019-03-29T07:54:04.450Z,85.63
2019-03-29T07:56:34.004Z,87.09
2019-03-29T07:59:03.622Z,85.40
2019-03-29T08:01:33.200Z,85.88
2019-03-29T08:04:02.798Z,85.69
2019-03-29T08:06:32.420Z,86.22
2019-03-29T08:09:02.068Z,85.88
2019-03-29T08:11:40.158Z,87.39
2019-03-29T08:14:02.940Z,86.58
2019-03-29T08:16:32.640Z,86.05
2019-03-29T08:19:02.253Z,85.22
2019-03-29T08:21:31.862Z,87.02
2019-03-29T08:24:01.378Z,86.68
2019-03-29T08:26:30.971Z,88.12
2019-03-29T08:29:00.608Z,87.39
2019-03-29T08:31:30.237Z,84.80
2019-03-29T08:33:59.757Z,85.69
2019-03-29T08:36:29.315Z,85.41
2019-03-29T08:38:58.908Z,84.44
2019-03-29T08:41:28.611Z,84.44
2019-03-29T08:43:58.260Z,83.92
2019-03-29T08:46:27.800Z,83.96
2019-03-29T08:48:57.420Z,82.10
2019-03-29T08:51:27.011Z,80.47
2019-03-29T08:53:56.561Z,80.82
2019-03-29T08:56:26.131Z,78.96
2019-03-29T08:58:55.761Z,77.98
2019-03-29T09:01:25.857Z,80.70
2019-03-29T09:04:05.168Z,78.86
2019-03-29T09:06:30.068Z,76.67
2019-03-29T09:08:59.140Z,76.67
2019-03-29T09:11:28.852Z,78.10
2019-03-29T09:13:58.470Z,77.61
2019-03-29T09:16:28.021Z,77.61
2019-03-29T09:18:57.595Z,73.19
2019-03-29T09:21:27.129Z,72.97
2019-03-29T09:23:56.697Z,72.39
2019-03-29T09:26:26.254Z,72.39
2019-03-29T09:28:55.890Z,69.39
2019-03-29T09:31:25.415Z,65.77
2019-03-29T09:33:58.273Z,64.82
2019-03-29T09:36:26.244Z,67.82
2019-03-29T09:38:55.783Z,68.13
2019-03-29T09:41:25.493Z,64.97
2019-03-29T09:43:55.121Z,64.29
2019-03-29T09:46:24.838Z,62.60
2019-03-29T09:48:54.572Z,62.88
2019-03-29T09:51:24.197Z,63.07
2019-03-29T09:53:53.751Z,61.97
2019-03-29T09:56:38.088Z,61.97
2019-03-29T09:58:58.496Z,59.23
2019-03-29T10:01:28.187Z,61.37
2019-03-29T10:04:00.357Z,61.59
2019-03-29T10:06:29.926Z,61.59
2019-03-29T10:08:59.462Z,59.85
2019-03-29T10:11:29.035Z,58.27
2019-03-29T10:13:58.604Z,59.85
2019-03-29T10:16:28.169Z,60.36
2019-03-29T10:18:57.726Z,55.62
2019-03-29T10:21:27.273Z,59.74
2019-03-29T10:23:56.841Z,56.89
2019-03-29T10:26:26.453Z,54.84
2019-03-29T10:28:55.975Z,54.93
2019-03-29T10:31:32.107Z,52.93
2019-03-29T10:33:56.840Z,55.43
2019-03-29T10:36:26.373Z,58.07
2019-03-29T10:38:55.987Z,51.74
2019-03-29T10:41:25.673Z,51.74
2019-03-29T10:43:56.298Z,53.46
2019-03-29T10:46:26.060Z,52.35
2019-03-29T10:48:55.697Z,52.35
2019-03-29T10:51:25.296Z,51.63
2019-03-29T10:53:54.841Z,51.63
2019-03-29T10:56:33.999Z,51.77
2019-03-29T10:58:55.773Z,53.64
2019-03-29T11:01:25.406Z,52.57
2019-03-29T11:03:55.060Z,52.84
2019-03-29T11:06:24.576Z,52.84
2019-03-29T11:08:54.175Z,55.49
2019-03-29T11:11:23.768Z,58.69
2019-03-29T11:13:56.536Z,56.51
2019-03-29T11:16:24.873Z,55.66
2019-03-29T11:18:54.447Z,56.05
2019-03-29T11:21:24.038Z,56.05
2019-03-29T11:23:53.581Z,57.38
2019-03-29T11:26:23.271Z,57.93
2019-03-29T11:28:52.840Z,55.12
2019-03-29T11:31:25.326Z,54.64
2019-03-29T11:33:53.735Z,54.49
2019-03-29T11:36:23.256Z,55.18
2019-03-29T11:38:52.845Z,53.80
2019-03-29T11:41:22.402Z,52.16
2019-03-29T11:43:52.092Z,55.18
2019-03-29T11:46:22.942Z,50.72
2019-03-29T11:48:53.450Z,49.89
2019-03-29T11:51:23.162Z,50.62
2019-03-29T11:53:52.744Z,50.62
2019-03-29T11:56:22.265Z,49.93
2019-03-29T11:58:51.828Z,49.93
2019-03-29T12:01:21.469Z,52.46
2019-03-29T12:03:51.180Z,48.87
2019-03-29T12:06:20.785Z,49.79
2019-03-29T12:08:50.388Z,48.01
2019-03-29T12:11:20.035Z,45.98
2019-03-29T12:13:49.670Z,45.98
2019-03-29T12:16:19.282Z,46.05
2019-03-29T12:18:48.828Z,47.37
2019-03-29T12:21:18.425Z,48.73
2019-03-29T12:23:48.020Z,46.88
2019-03-29T12:26:17.716Z,48.64
2019-03-29T12:28:47.464Z,45.36
2019-03-29T12:31:17.072Z,45.00
2019-03-29T12:33:46.691Z,45.76
2019-03-29T12:36:16.301Z,46.99
2019-03-29T12:38:45.881Z,44.72
2019-03-29T12:41:15.459Z,44.71
2019-03-29T12:43:55.354Z,46.14
2019-03-29T12:46:18.415Z,45.55
2019-03-29T12:48:50.297Z,46.92
2019-03-29T12:51:19.413Z,45.98
2019-03-29T12:53:49.006Z,45.98
2019-03-29T12:56:18.515Z,45.94
2019-03-29T12:58:48.090Z,45.94
2019-03-29T13:01:17.710Z,45.09
2019-03-29T13:03:47.389Z,48.84
2019-03-29T13:06:19.307Z,48.66
2019-03-29T13:08:48.827Z,47.22
2019-03-29T13:11:18.431Z,44.65
2019-03-29T13:13:47.993Z,47.83
2019-03-29T13:16:17.719Z,44.68
2019-03-29T13:18:47.420Z,43.85
2019-03-29T13:21:17.097Z,45.67
2019-03-29T13:23:46.698Z,45.85
2019-03-29T13:26:16.348Z,44.55
2019-03-29T13:28:46.028Z,45.12
2019-03-29T13:31:16.818Z,45.12
2019-03-29T13:33:46.318Z,44.39
2019-03-29T13:36:15.977Z,47.14
2019-03-29T13:38:45.591Z,46.63
2019-03-29T13:41:15.189Z,44.72
2019-03-29T13:46:20.938Z,48.48
2019-03-29T13:48:50.460Z,47.82
2019-03-29T13:51:20.013Z,45.90
2019-03-29T13:53:49.556Z,48.74
2019-03-29T13:56:19.082Z,49.10
2019-03-29T13:58:48.642Z,45.86
2019-03-29T14:01:19.474Z,47.37
2019-03-29T14:03:49.114Z,46.63
2019-03-29T14:06:25.071Z,46.63
2019-03-29T14:08:57.916Z,45.75
2019-03-29T14:11:28.947Z,45.52
2019-03-29T14:13:58.703Z,44.90
2019-03-29T14:16:28.277Z,44.90
2019-03-29T14:18:57.835Z,43.77
2019-03-29T14:21:27.384Z,41.71
2019-03-29T14:23:56.921Z,45.03
2019-03-29T14:26:26.499Z,43.64
2019-03-29T14:28:57.609Z,45.78
2019-03-29T14:31:27.265Z,43.07
2019-03-29T14:33:56.824Z,43.30
2019-03-29T14:36:26.370Z,45.20
2019-03-29T14:38:55.942Z,48.71
2019-03-29T14:41:25.641Z,43.79
2019-03-29T14:43:55.307Z,44.82
2019-03-29T14:46:24.959Z,44.60
2019-03-29T14:48:54.534Z,44.67
2019-03-29T14:51:24.221Z,42.46
2019-03-29T14:53:53.778Z,45.27
2019-03-29T14:56:23.505Z,42.84
2019-03-29T14:58:53.094Z,44.62
2019-03-29T15:01:22.666Z,44.62
2019-03-29T15:03:52.276Z,41.48
2019-03-29T15:06:21.809Z,47.65
2019-03-29T15:08:52.471Z,44.60
2019-03-29T15:11:22.914Z,46.96
2019-03-29T15:13:52.671Z,44.47
2019-03-29T15:16:22.369Z,44.05
2019-03-29T15:18:51.874Z,43.79
2019-03-29T15:21:21.434Z,42.10
2019-03-29T15:23:51.139Z,43.54
2019-03-29T15:26:20.769Z,44.63
2019-03-29T15:28:50.337Z,45.20
2019-03-29T15:31:20.004Z,45.20
2019-03-29T15:33:49.572Z,43.57
2019-03-29T15:36:19.137Z,43.64
2019-03-29T15:38:48.745Z,44.41
2019-03-29T15:41:18.522Z,44.95
2019-03-29T15:43:48.073Z,45.68
2019-03-29T15:46:17.711Z,43.08
2019-03-29T15:48:47.295Z,43.82
2019-03-29T15:51:16.844Z,44.50
2019-03-29T15:53:46.583Z,43.92
2019-03-29T15:56:16.122Z,44.46
2019-03-29T15:58:45.746Z,44.41
2019-03-29T16:03:50.619Z,44.52
2019-03-29T16:06:20.323Z,44.90
2019-03-29T16:08:51.010Z,44.73
2019-03-29T16:11:22.537Z,46.15
2019-03-29T16:13:51.947Z,44.42
2019-03-29T16:16:21.585Z,45.51
2019-03-29T16:18:51.274Z,46.44
2019-03-29T16:21:20.778Z,47.41
2019-03-29T16:23:50.323Z,46.50
2019-03-29T16:26:19.860Z,46.72
2019-03-29T16:28:49.429Z,46.85
2019-03-29T16:31:19.034Z,46.76
2019-03-29T16:33:48.577Z,45.59
2019-03-29T16:36:18.168Z,46.46
2019-03-29T16:38:47.789Z,46.46
2019-03-29T16:41:17.420Z,49.23
2019-03-29T16:43:46.991Z,48.07
2019-03-29T16:46:16.544Z,48.43
2019-03-29T16:48:47.013Z,48.88
2019-03-29T16:51:16.626Z,50.38
2019-03-29T16:53:46.179Z,51.11
2019-03-29T16:56:15.799Z,51.39
2019-03-29T16:58:45.363Z,49.75
2019-03-29T17:01:14.899Z,49.75
2019-03-29T17:03:44.425Z,49.77
2019-03-29T17:08:42.611Z,50.61
2019-03-29T17:11:12.253Z,50.24
2019-03-29T17:13:44.084Z,50.36
2019-03-29T17:16:13.651Z,52.83
2019-03-29T17:18:44.420Z,52.83
2019-03-29T17:21:15.125Z,52.67
2019-03-29T17:23:44.683Z,51.57
2019-03-29T17:26:14.270Z,53.09
2019-03-29T17:28:43.804Z,55.38
2019-03-29T17:31:14.527Z,55.38
2019-03-29T17:33:44.055Z,57.22
2019-03-29T17:36:13.660Z,59.29
2019-03-29T17:38:43.326Z,59.88
2019-03-29T17:41:12.838Z,59.97
2019-03-29T17:43:43.941Z,60.79
2019-03-29T17:46:16.489Z,61.95
2019-03-29T17:48:44.826Z,62.63
2019-03-29T17:51:16.118Z,63.45
2019-03-29T17:53:45.813Z,64.04
2019-03-29T17:56:15.342Z,64.04
2019-03-29T17:58:44.914Z,64.42
2019-03-29T18:01:14.491Z,65.34
2019-03-29T18:03:44.025Z,65.34
2019-03-29T18:06:13.605Z,66.25
2019-03-29T18:08:43.225Z,66.25
2019-03-29T18:11:13.009Z,66.98
2019-03-29T18:13:42.654Z,67.91
2019-03-29T18:16:12.276Z,67.91
2019-03-29T18:18:41.783Z,67.61
2019-03-29T18:21:11.482Z,67.98
2019-03-29T18:23:41.026Z,67.98
2019-03-29T18:26:10.715Z,68.69
2019-03-29T18:28:40.379Z,69.49
2019-03-29T18:31:10.239Z,69.25
2019-03-29T18:33:40.370Z,71.04
2019-03-29T18:36:10.109Z,70.81
2019-03-29T18:38:41.140Z,70.05
2019-03-29T18:41:10.786Z,71.42
2019-03-29T18:43:40.407Z,71.96
2019-03-29T18:46:09.943Z,71.96
2019-03-29T18:48:39.502Z,72.17
2019-03-29T18:51:09.083Z,72.14
2019-03-29T18:53:38.638Z,74.63
2019-03-29T18:56:08.853Z,74.63
2019-03-29T18:58:38.415Z,74.68
2019-03-29T19:01:07.994Z,74.70
2019-03-29T19:03:37.499Z,74.73
2019-03-29T19:06:09.464Z,76.07
2019-03-29T19:08:40.159Z,75.40
2019-03-29T19:11:09.784Z,76.11
2019-03-29T19:13:39.391Z,76.11
2019-03-29T19:16:12.753Z,76.39
2019-03-29T19:18:42.311Z,77.09
2019-03-29T19:21:11.994Z,77.45
2019-03-29T19:23:44.275Z,77.82
2019-03-29T19:26:13.958Z,77.82
2019-03-29T19:28:43.503Z,78.53
2019-03-29T19:31:16.367Z,78.52
2019-03-29T19:33:45.924Z,78.24
2019-03-29T19:36:15.441Z,78.24
2019-03-29T19:38:45.775Z,79.31
2019-03-29T19:41:19.683Z,79.51
2019-03-29T19:43:49.340Z,79.06
2019-03-29T19:46:18.942Z,79.86
2019-03-29T19:48:48.929Z,80.67
2019-03-29T19:51:18.449Z,80.93
2019-03-29T19:53:48.021Z,80.93
2019-03-29T19:56:18.021Z,81.17
2019-03-29T19:58:51.337Z,82.22
2019-03-29T20:01:20.954Z,82.75
2019-03-29T20:03:50.554Z,82.77
2019-03-29T20:06:20.085Z,82.77
2019-03-29T20:08:51.261Z,82.95
2019-03-29T20:11:20.819Z,82.95
2019-03-29T20:13:53.942Z,83.39
2019-03-29T20:16:23.479Z,83.87
2019-03-29T20:18:56.040Z,83.87
2019-03-29T20:21:25.805Z,83.73
2019-03-29T20:23:55.338Z,84.12
2019-03-29T20:26:26.213Z,84.38
2019-03-29T20:28:55.934Z,84.38
2019-03-29T20:31:25.602Z,84.92
2019-03-29T20:33:55.127Z,84.95
2019-03-29T20:36:24.742Z,84.95
2019-03-29T20:38:54.467Z,84.75
2019-03-29T20:41:24.056Z,85.15
2019-03-29T20:43:53.629Z,85.49
2019-03-29T20:46:23.254Z,85.88
2019-03-29T20:48:53.128Z,85.64
2019-03-29T20:51:23.069Z,86.71
2019-03-29T20:53:52.643Z,86.38
2019-03-29T20:56:22.216Z,86.68
2019-03-29T20:58:52.386Z,86.99
2019-03-29T21:01:22.037Z,87.61
2019-03-29T21:03:51.582Z,87.36
2019-03-29T21:06:21.202Z,87.61
2019-03-29T21:08:50.769Z,87.78
2019-03-29T21:11:20.348Z,88.33
2019-03-29T21:13:50.282Z,87.79
2019-03-29T21:16:19.942Z,88.97
2019-03-29T21:18:51.378Z,88.97
2019-03-29T21:21:20.955Z,89.06
2019-03-29T21:23:50.531Z,89.05
2019-03-29T21:26:20.138Z,89.69
2019-03-29T21:28:53.090Z,89.43
2019-03-29T21:31:24.006Z,90.52
2019-03-29T21:33:53.695Z,90.50
2019-03-29T21:36:23.325Z,90.60
2019-03-29T21:38:52.964Z,90.12
2019-03-29T21:41:22.523Z,91.70
2019-03-29T21:43:52.243Z,90.85
2019-03-29T21:46:21.835Z,91.65
2019-03-29T21:48:51.426Z,91.63
2019-03-29T21:51:20.980Z,91.20
2019-03-29T21:53:50.530Z,91.61
2019-03-29T21:56:20.128Z,92.67
2019-03-29T21:58:49.651Z,92.85
2019-03-29T22:01:19.214Z,92.46
2019-03-29T22:03:48.773Z,93.29
2019-03-29T22:06:18.328Z,92.63
2019-03-29T22:08:47.938Z,92.53
2019-03-29T22:11:17.626Z,92.53
2019-03-29T22:13:49.328Z,92.73
2019-03-29T22:16:18.973Z,93.64
2019-03-29T22:18:48.936Z,93.51
2019-03-29T22:21:18.480Z,93.51
2019-03-29T22:23:48.013Z,94.14
2019-03-29T22:26:17.639Z,94.36
2019-03-29T22:28:47.206Z,94.33
2019-03-29T22:31:16.749Z,94.33
2019-03-29T22:33:46.319Z,94.96
2019-03-29T22:36:15.895Z,95.15
2019-03-29T22:38:45.542Z,95.15
2019-03-29T22:41:15.077Z,96.12
2019-03-29T22:43:44.634Z,95.72
2019-03-29T22:46:14.207Z,95.94
2019-03-29T22:48:52.255Z,96.82
2019-03-29T22:51:15.147Z,96.82
2019-03-29T22:53:44.684Z,96.24
2019-03-29T22:56:14.205Z,96.82
2019-03-29T22:58:44.226Z,96.75
2019-03-29T23:01:14.217Z,96.53
2019-03-29T23:03:46.043Z,97.31
2019-03-29T23:06:15.664Z,97.46
2019-03-29T23:08:45.290Z,97.47
2019-03-29T23:11:14.942Z,97.76
2019-03-29T23:13:44.530Z,97.48
2019-03-29T23:16:14.125Z,97.48
2019-03-29T23:18:43.782Z,97.07
2019-03-29T23:21:13.612Z,97.74
2019-03-29T23:23:43.161Z,98.14
2019-03-29T23:26:12.709Z,98.26
2019-03-29T23:28:44.778Z,98.26
2019-03-29T23:31:14.399Z,98.70
2019-03-29T23:33:43.976Z,98.61
2019-03-29T23:36:13.519Z,98.74
2019-03-29T23:38:43.140Z,98.59
2019-03-29T23:43:47.789Z,98.92
2019-03-29T23:46:17.359Z,98.92
2019-03-29T23:49:20.844Z,99.12
2019-03-29T23:51:55.349Z,98.75
2019-03-29T23:54:42.595Z,98.75
2019-03-29T23:57:53.573Z,99.01
